createdAt,value
2022-08-21T00:02:29.620Z,14.10
2022-08-21T00:05:00.261Z,14.10
2022-08-21T00:07:31.262Z,14.10
2022-08-21T00:10:01.458Z,14.00
2022-08-21T00:12:32.295Z,14.00
2022-08-21T00:15:00.570Z,14.00
2022-08-21T00:17:28.941Z,14.00
2022-08-21T00:19:56.189Z,14.00
2022-08-21T00:22:27.110Z,14.00
2022-08-21T00:24:58.352Z,13.90
2022-08-21T00:27:25.578Z,13.90
2022-08-21T00:29:54.825Z,13.90
2022-08-21T00:32:27.558Z,13.90
2022-08-21T00:34:55.719Z,13.80
2022-08-21T00:37:25.764Z,13.80
2022-08-21T00:39:54.593Z,13.80
2022-08-21T00:42:26.603Z,13.80
2022-08-21T00:45:03.668Z,13.80
2022-08-21T00:47:30.946Z,13.80
2022-08-21T00:50:06.595Z,13.80
2022-08-21T00:52:45.624Z,13.70
2022-08-21T00:55:14.015Z,13.70
2022-08-21T00:57:51.445Z,13.70
2022-08-21T01:00:22.676Z,13.60
2022-08-21T01:02:53.941Z,13.60
2022-08-21T01:05:25.639Z,13.60
2022-08-21T01:08:00.091Z,13.60
2022-08-21T01:10:31.336Z,13.60
2022-08-21T01:13:03.337Z,13.50
2022-08-21T01:15:36.716Z,13.50
2022-08-21T01:18:15.937Z,13.40
2022-08-21T01:21:08.563Z,13.40
2022-08-21T01:23:40.924Z,13.30
2022-08-21T01:26:08.807Z,13.30
2022-08-21T01:28:48.547Z,13.40
2022-08-21T01:31:19.011Z,13.40
2022-08-21T01:33:58.497Z,13.40
2022-08-21T01:36:29.721Z,13.40
2022-08-21T01:38:58.147Z,13.40
2022-08-21T01:41:29.224Z,13.50
2022-08-21T01:44:00.355Z,13.40
2022-08-21T01:46:29.678Z,13.40
2022-08-21T01:48:58.029Z,13.40
2022-08-21T01:51:30.769Z,13.50
2022-08-21T01:53:59.479Z,13.50
2022-08-21T01:56:37.481Z,13.50
2022-08-21T01:59:08.535Z,13.50
2022-08-21T02:01:40.840Z,13.40
2022-08-21T02:04:11.985Z,13.40
2022-08-21T02:06:43.477Z,13.40
2022-08-21T02:09:17.898Z,13.30
2022-08-21T02:11:55.817Z,13.30
2022-08-21T02:14:32.353Z,13.20
2022-08-21T02:17:09.317Z,13.10
2022-08-21T02:19:42.022Z,13.10
2022-08-21T02:22:19.733Z,13.00
2022-08-21T02:24:54.543Z,13.00
2022-08-21T02:27:32.964Z,12.90
2022-08-21T02:30:12.567Z,12.90
2022-08-21T02:32:43.947Z,12.90
2022-08-21T02:35:12.758Z,12.80
2022-08-21T02:37:48.016Z,12.80
2022-08-21T02:40:34.883Z,12.80
2022-08-21T02:43:19.983Z,12.70
2022-08-21T02:45:53.942Z,12.70
2022-08-21T02:48:30.732Z,12.70
2022-08-21T02:51:09.478Z,12.70
2022-08-21T02:53:43.503Z,12.70
2022-08-21T02:56:16.866Z,12.70
2022-08-21T02:58:55.331Z,12.70
2022-08-21T03:01:33.906Z,12.70
2022-08-21T03:04:08.784Z,12.70
2022-08-21T03:06:41.234Z,12.70
2022-08-21T03:09:15.774Z,12.70
2022-08-21T03:11:48.108Z,12.70
2022-08-21T03:14:20.835Z,12.70
2022-08-21T03:16:54.925Z,12.70
2022-08-21T03:19:28.306Z,12.60
2022-08-21T03:21:57.664Z,12.60
2022-08-21T03:24:25.720Z,12.50
2022-08-21T03:27:03.572Z,12.50
2022-08-21T03:29:36.838Z,12.40
2022-08-21T03:32:17.925Z,12.40
2022-08-21T03:34:47.896Z,12.40
2022-08-21T03:37:20.491Z,12.30
2022-08-21T03:39:48.854Z,12.20
2022-08-21T03:42:20.856Z,12.20
2022-08-21T03:44:53.848Z,12.10
2022-08-21T03:47:24.293Z,12.10
2022-08-21T03:49:55.558Z,12.10
2022-08-21T03:52:23.372Z,12.10
2022-08-21T03:54:53.218Z,12.10
2022-08-21T03:57:22.668Z,12.10
2022-08-21T03:59:59.247Z,12.10
2022-08-21T04:02:34.983Z,12.10
2022-08-21T04:05:09.560Z,12.10
2022-08-21T04:07:38.368Z,12.10
2022-08-21T04:10:08.254Z,12.10
2022-08-21T04:12:41.538Z,12.10
2022-08-21T04:15:17.386Z,12.10
2022-08-21T04:17:52.737Z,12.10
2022-08-21T04:20:26.212Z,12.00
2022-08-21T04:22:57.665Z,12.00
2022-08-21T04:25:29.863Z,12.00
2022-08-21T04:28:03.138Z,12.00
2022-08-21T04:30:38.380Z,12.00
2022-08-21T04:33:19.476Z,12.00
2022-08-21T04:35:50.231Z,12.10
2022-08-21T04:38:24.048Z,12.10
2022-08-21T04:40:58.226Z,12.10
2022-08-21T04:43:27.177Z,12.20
2022-08-21T04:45:54.471Z,12.30
2022-08-21T04:48:31.251Z,12.40
2022-08-21T04:51:04.457Z,12.40
2022-08-21T04:53:50.260Z,12.50
2022-08-21T04:56:32.183Z,12.40
2022-08-21T04:59:17.053Z,12.30
2022-08-21T05:01:48.519Z,12.40
2022-08-21T05:04:23.916Z,12.40
2022-08-21T05:06:59.092Z,12.40
2022-08-21T05:09:34.938Z,12.50
2022-08-21T05:12:11.756Z,12.50
2022-08-21T05:14:40.973Z,12.60
2022-08-21T05:17:09.810Z,12.60
2022-08-21T05:19:42.023Z,12.70
2022-08-21T05:22:14.694Z,12.70
2022-08-21T05:24:46.575Z,12.80
2022-08-21T05:27:22.654Z,12.80
2022-08-21T05:29:58.359Z,12.90
2022-08-21T05:32:38.408Z,13.00
2022-08-21T05:35:13.673Z,13.00
2022-08-21T05:37:52.543Z,13.10
2022-08-21T05:40:33.496Z,13.10
2022-08-21T05:43:05.515Z,13.30
2022-08-21T05:45:42.641Z,13.30
2022-08-21T05:48:23.786Z,13.40
2022-08-21T05:50:56.296Z,13.50
2022-08-21T05:53:30.908Z,13.60
2022-08-21T05:55:59.252Z,13.80
2022-08-21T05:58:34.789Z,14.00
2022-08-21T06:01:06.298Z,14.20
2022-08-21T06:03:40.726Z,14.30
2022-08-21T06:06:09.589Z,14.50
2022-08-21T06:08:45.723Z,14.60
2022-08-21T06:11:25.814Z,14.70
2022-08-21T06:14:10.786Z,14.90
2022-08-21T06:16:41.600Z,15.00
2022-08-21T06:19:14.191Z,15.20
2022-08-21T06:21:48.847Z,15.40
2022-08-21T06:24:20.992Z,15.50
2022-08-21T06:26:51.938Z,15.60
2022-08-21T06:29:27.083Z,15.80
2022-08-21T06:31:57.247Z,15.90
2022-08-21T06:34:29.431Z,16.00
2022-08-21T06:37:10.544Z,16.20
2022-08-21T06:39:45.336Z,16.30
2022-08-21T06:45:16.482Z,16.60
2022-08-21T06:47:52.774Z,16.70
2022-08-21T06:50:21.138Z,16.90
2022-08-21T06:52:54.330Z,17.00
2022-08-21T06:55:29.088Z,17.10
2022-08-21T06:57:57.355Z,17.20
2022-08-21T07:00:33.310Z,17.20
2022-08-21T07:03:06.542Z,17.30
2022-08-21T07:05:42.166Z,17.50
2022-08-21T07:08:10.737Z,17.70
2022-08-21T07:10:41.786Z,17.80
2022-08-21T07:13:13.628Z,18.00
2022-08-21T07:15:45.383Z,18.10
2022-08-21T07:18:14.960Z,18.30
2022-08-21T07:20:48.009Z,18.40
2022-08-21T07:23:31.527Z,18.50
2022-08-21T07:26:00.647Z,18.70
2022-08-21T07:28:29.224Z,18.90
2022-08-21T07:31:00.079Z,18.90
2022-08-21T07:33:34.598Z,18.90
2022-08-21T07:36:06.943Z,19.00
2022-08-21T07:38:35.561Z,19.20
2022-08-21T07:41:09.374Z,19.30
2022-08-21T07:43:46.364Z,19.40
2022-08-21T07:46:15.569Z,19.50
2022-08-21T07:48:46.328Z,19.50
2022-08-21T07:51:16.245Z,19.80
2022-08-21T07:53:49.224Z,20.30
2022-08-21T07:56:16.660Z,20.20
2022-08-21T07:58:49.324Z,20.30
2022-08-21T08:01:22.150Z,20.50
2022-08-21T08:03:53.477Z,20.40
2022-08-21T08:06:22.068Z,20.30
2022-08-21T08:08:51.973Z,20.20
2022-08-21T08:11:28.241Z,20.20
2022-08-21T08:14:01.923Z,20.10
2022-08-21T08:16:31.521Z,20.10
2022-08-21T08:19:03.376Z,19.90
2022-08-21T08:21:38.667Z,19.80
2022-08-21T08:24:19.260Z,19.60
2022-08-21T08:26:53.999Z,19.50
2022-08-21T08:29:25.575Z,19.60
2022-08-21T08:31:53.420Z,19.60
2022-08-21T08:34:25.671Z,19.60
2022-08-21T08:36:55.014Z,19.50
2022-08-21T08:39:29.778Z,19.50
2022-08-21T08:42:33.732Z,19.40
2022-08-21T08:45:34.804Z,19.30
2022-08-21T08:48:14.581Z,19.40
2022-08-21T08:50:57.833Z,19.50
2022-08-21T08:53:37.391Z,19.50
2022-08-21T08:56:09.525Z,19.50
2022-08-21T08:58:52.337Z,19.50
2022-08-21T09:01:24.272Z,19.50
2022-08-21T09:03:59.457Z,19.50
2022-08-21T09:06:31.067Z,19.50
2022-08-21T09:09:16.909Z,19.40
2022-08-21T09:11:56.350Z,19.40
2022-08-21T09:14:58.653Z,19.50
2022-08-21T09:17:51.023Z,19.70
2022-08-21T09:20:46.525Z,19.90
2022-08-21T09:23:36.739Z,20.10
2022-08-21T09:26:20.801Z,20.30
2022-08-21T09:28:58.395Z,20.50
2022-08-21T09:31:39.527Z,20.50
2022-08-21T09:34:30.496Z,20.70
2022-08-21T09:37:05.496Z,20.80
2022-08-21T09:39:42.584Z,21.00
2022-08-21T09:42:32.518Z,21.20
2022-08-21T09:45:22.743Z,21.40
2022-08-21T09:47:52.123Z,21.60
2022-08-21T09:50:30.177Z,21.70
2022-08-21T09:53:01.590Z,21.90
2022-08-21T09:55:58.643Z,21.90
2022-08-21T09:58:38.592Z,21.80
2022-08-21T10:01:14.930Z,21.80
2022-08-21T10:03:48.543Z,21.80
2022-08-21T10:06:29.299Z,21.80
2022-08-21T10:09:09.873Z,21.90
2022-08-21T10:11:44.882Z,21.80
2022-08-21T10:14:21.227Z,21.80
2022-08-21T10:17:08.723Z,21.90
2022-08-21T10:19:53.128Z,21.90
2022-08-21T10:22:34.286Z,22.00
2022-08-21T10:25:13.945Z,22.20
2022-08-21T10:28:13.837Z,22.30
2022-08-21T10:31:09.405Z,22.40
2022-08-21T10:34:05.367Z,22.50
2022-08-21T10:36:43.740Z,22.50
2022-08-21T10:39:26.345Z,22.60
2022-08-21T10:42:32.371Z,22.60
2022-08-21T10:45:09.972Z,22.70
2022-08-21T10:47:49.182Z,22.80
2022-08-21T10:50:22.616Z,22.90
2022-08-21T10:53:01.888Z,23.00
2022-08-21T10:55:44.513Z,23.10
2022-08-21T10:58:26.129Z,23.10
2022-08-21T11:01:08.980Z,23.20
2022-08-21T11:03:53.150Z,23.10
2022-08-21T11:06:28.054Z,23.30
2022-08-21T11:09:28.695Z,23.40
2022-08-21T11:12:11.563Z,23.40
2022-08-21T11:14:52.854Z,23.30
2022-08-21T11:17:44.713Z,23.30
2022-08-21T11:20:22.523Z,23.40
2022-08-21T11:23:17.466Z,23.60
2022-08-21T11:25:52.260Z,23.80
2022-08-21T11:28:38.696Z,24.00
2022-08-21T11:31:38.844Z,24.10
2022-08-21T11:34:29.069Z,24.10
2022-08-21T11:37:36.937Z,24.20
2022-08-21T11:40:15.380Z,24.30
2022-08-21T11:43:00.000Z,24.40
2022-08-21T11:45:41.945Z,24.30
2022-08-21T11:48:38.546Z,24.20
2022-08-21T11:51:20.357Z,24.30
2022-08-21T11:53:57.504Z,24.30
2022-08-21T11:56:43.918Z,24.20
2022-08-21T11:59:22.083Z,24.40
2022-08-21T12:01:54.207Z,24.50
2022-08-21T12:04:37.927Z,24.50
2022-08-21T12:07:29.530Z,24.40
2022-08-21T12:10:03.295Z,24.40
2022-08-21T12:12:35.686Z,24.70
2022-08-21T12:15:32.466Z,24.90
2022-08-21T12:18:01.792Z,25.10
2022-08-21T12:20:50.063Z,25.30
2022-08-21T12:23:30.484Z,25.20
2022-08-21T12:26:31.058Z,25.20
2022-08-21T12:29:16.711Z,25.20
2022-08-21T12:31:54.893Z,25.00
2022-08-21T12:34:36.788Z,25.00
2022-08-21T12:37:21.707Z,25.00
2022-08-21T12:39:52.871Z,25.20
2022-08-21T12:42:29.579Z,25.50
2022-08-21T12:45:05.285Z,25.60
2022-08-21T12:47:48.336Z,25.60
2022-08-21T12:50:27.562Z,25.40
2022-08-21T12:53:20.656Z,25.40
2022-08-21T12:55:50.911Z,25.40
2022-08-21T12:58:25.852Z,25.20
2022-08-21T13:01:08.531Z,25.00
2022-08-21T13:03:38.549Z,24.90
2022-08-21T13:06:10.974Z,24.70
2022-08-21T13:08:47.389Z,24.70
2022-08-21T13:11:33.790Z,24.70
2022-08-21T13:14:05.828Z,24.60
2022-08-21T13:16:37.076Z,24.60
2022-08-21T13:19:09.977Z,24.50
2022-08-21T13:21:47.824Z,24.50
2022-08-21T13:24:41.929Z,24.30
2022-08-21T13:27:24.656Z,24.10
2022-08-21T13:30:11.377Z,23.90
2022-08-21T13:32:46.460Z,23.80
2022-08-21T13:35:25.346Z,23.80
2022-08-21T13:37:54.937Z,23.80
2022-08-21T13:40:32.314Z,23.80
2022-08-21T13:43:02.697Z,23.90
2022-08-21T13:45:38.031Z,24.20
2022-08-21T13:48:08.226Z,24.50
2022-08-21T13:50:46.228Z,24.70
2022-08-21T13:53:46.011Z,24.80
2022-08-21T13:56:32.440Z,24.90
2022-08-21T13:59:11.946Z,24.90
2022-08-21T14:02:20.823Z,24.70
2022-08-21T14:04:53.051Z,24.40
2022-08-21T14:07:27.793Z,24.20
2022-08-21T14:09:57.018Z,24.00
2022-08-21T14:12:32.658Z,23.80
2022-08-21T14:15:06.648Z,23.80
2022-08-21T14:17:39.717Z,23.70
2022-08-21T14:20:14.808Z,23.70
2022-08-21T14:22:49.648Z,23.60
2022-08-21T14:25:32.090Z,23.50
2022-08-21T14:28:10.606Z,23.40
2022-08-21T14:30:46.734Z,23.40
2022-08-21T14:33:31.058Z,23.40
2022-08-21T14:36:05.401Z,23.30
2022-08-21T14:38:37.082Z,23.20
2022-08-21T14:41:38.216Z,23.00
2022-08-21T14:44:14.765Z,22.90
2022-08-21T14:46:54.304Z,22.90
2022-08-21T14:49:35.753Z,23.00
2022-08-21T14:52:08.906Z,23.00
2022-08-21T14:54:43.931Z,23.10
2022-08-21T14:57:15.944Z,23.20
2022-08-21T14:59:53.463Z,23.40
2022-08-21T15:02:21.832Z,23.50
2022-08-21T15:04:53.725Z,23.70
2022-08-21T15:07:21.991Z,23.90
2022-08-21T15:10:00.003Z,24.10
2022-08-21T15:12:29.373Z,24.10
2022-08-21T15:15:00.863Z,24.00
2022-08-21T15:17:35.119Z,23.80
2022-08-21T15:20:03.166Z,23.50
2022-08-21T15:22:30.482Z,23.30
2022-08-21T15:24:59.830Z,23.30
2022-08-21T15:27:30.248Z,23.40
2022-08-21T15:29:59.634Z,23.60
2022-08-21T15:32:39.183Z,23.80
2022-08-21T15:35:10.920Z,23.80
2022-08-21T15:37:40.412Z,23.90
2022-08-21T15:40:08.934Z,23.90
2022-08-21T15:42:44.535Z,23.80
2022-08-21T15:45:14.093Z,23.60
2022-08-21T15:47:46.671Z,23.40
2022-08-21T15:50:14.327Z,23.20
2022-08-21T15:52:49.626Z,23.00
2022-08-21T15:55:20.967Z,23.00
2022-08-21T15:57:59.938Z,22.80
2022-08-21T16:00:35.365Z,22.70
2022-08-21T16:03:08.637Z,22.60
2022-08-21T16:05:40.621Z,22.50
2022-08-21T16:08:14.903Z,22.50
2022-08-21T16:10:42.792Z,22.40
2022-08-21T16:13:31.718Z,22.30
2022-08-21T16:16:03.105Z,22.20
2022-08-21T16:18:35.567Z,22.10
2022-08-21T16:21:08.437Z,22.00
2022-08-21T16:23:41.699Z,21.90
2022-08-21T16:26:14.778Z,21.80
2022-08-21T16:28:50.369Z,21.70
2022-08-21T16:31:25.088Z,21.60
2022-08-21T16:34:00.678Z,21.50
2022-08-21T16:36:42.605Z,21.40
2022-08-21T16:39:14.545Z,21.30
2022-08-21T16:41:45.904Z,21.20
2022-08-21T16:44:17.379Z,21.20
2022-08-21T16:46:55.392Z,21.20
2022-08-21T16:49:32.551Z,21.10
2022-08-21T16:52:07.054Z,21.10
2022-08-21T16:54:37.788Z,21.20
2022-08-21T16:57:08.828Z,21.40
2022-08-21T16:59:41.725Z,21.70
2022-08-21T17:02:40.243Z,21.80
2022-08-21T17:05:13.757Z,21.80
2022-08-21T17:07:46.135Z,21.90
2022-08-21T17:10:16.635Z,22.10
2022-08-21T17:12:56.001Z,22.30
2022-08-21T17:15:35.119Z,22.60
2022-08-21T17:18:08.341Z,22.60
2022-08-21T17:20:35.999Z,22.60
2022-08-21T17:23:03.673Z,22.50
2022-08-21T17:25:37.499Z,23.00
2022-08-21T17:28:04.928Z,23.60
2022-08-21T17:30:36.570Z,23.40
2022-08-21T17:33:04.258Z,23.20
2022-08-21T17:35:35.188Z,22.90
2022-08-21T17:38:11.039Z,22.50
2022-08-21T17:40:49.252Z,22.20
2022-08-21T17:43:29.149Z,22.00
2022-08-21T17:46:01.637Z,21.80
2022-08-21T17:48:35.349Z,21.60
2022-08-21T17:51:11.065Z,21.40
2022-08-21T17:53:47.916Z,21.30
2022-08-21T17:56:19.942Z,21.10
2022-08-21T17:58:52.510Z,21.00
2022-08-21T18:01:23.871Z,20.80
2022-08-21T18:03:51.076Z,20.70
2022-08-21T18:06:30.502Z,20.60
2022-08-21T18:09:05.221Z,20.50
2022-08-21T18:11:38.118Z,20.40
2022-08-21T18:14:10.897Z,20.30
2022-08-21T18:16:44.244Z,20.20
2022-08-21T18:19:21.572Z,20.20
2022-08-21T18:21:56.516Z,20.20
2022-08-21T18:24:28.990Z,20.10
2022-08-21T18:27:00.032Z,20.10
2022-08-21T18:29:31.727Z,20.10
2022-08-21T18:32:05.161Z,20.00
2022-08-21T18:34:54.493Z,19.80
2022-08-21T18:37:29.695Z,19.50
2022-08-21T18:40:04.201Z,19.30
2022-08-21T18:42:54.954Z,19.10
2022-08-21T18:45:30.480Z,18.90
2022-08-21T18:48:03.898Z,18.80
2022-08-21T18:50:32.145Z,18.60
2022-08-21T18:53:18.161Z,18.50
2022-08-21T18:55:57.120Z,18.50
2022-08-21T18:58:46.323Z,18.40
2022-08-21T19:01:14.064Z,18.30
2022-08-21T19:03:41.447Z,18.30
2022-08-21T19:08:57.023Z,18.20
2022-08-21T19:11:26.924Z,18.20
2022-08-21T19:13:56.753Z,18.10
2022-08-21T19:16:24.335Z,18.00
2022-08-21T19:18:56.169Z,17.90
2022-08-21T19:21:28.997Z,17.80
2022-08-21T19:24:02.194Z,17.70
2022-08-21T19:26:45.527Z,17.60
2022-08-21T19:29:19.643Z,17.40
2022-08-21T19:31:47.367Z,17.30
2022-08-21T19:34:20.159Z,17.30
2022-08-21T19:36:57.096Z,17.20
2022-08-21T19:39:25.339Z,17.10
2022-08-21T19:41:57.401Z,17.10
2022-08-21T19:44:28.524Z,17.00
2022-08-21T19:49:52.719Z,16.90
2022-08-21T19:52:24.247Z,16.90
2022-08-21T19:54:56.101Z,16.80
2022-08-21T19:57:30.481Z,16.80
2022-08-21T20:00:02.258Z,16.80
2022-08-21T20:02:36.144Z,16.70
2022-08-21T20:05:08.319Z,16.60
2022-08-21T20:07:39.452Z,16.50
2022-08-21T20:10:10.486Z,16.40
2022-08-21T20:12:38.162Z,16.30
2022-08-21T20:15:07.778Z,16.20
2022-08-21T20:17:36.253Z,16.10
2022-08-21T20:20:08.165Z,16.00
2022-08-21T20:22:41.818Z,15.90
2022-08-21T20:25:09.934Z,15.80
2022-08-21T20:27:40.296Z,15.70
2022-08-21T20:30:13.469Z,15.70
2022-08-21T20:32:43.572Z,15.60
2022-08-21T20:35:14.246Z,15.60
2022-08-21T20:37:45.047Z,15.50
2022-08-21T20:40:32.962Z,15.40
2022-08-21T20:43:04.731Z,15.40
2022-08-21T20:45:37.877Z,15.30
2022-08-21T20:48:23.541Z,15.30
2022-08-21T20:51:15.058Z,15.20
2022-08-21T20:53:57.699Z,15.20
2022-08-21T21:00:28.435Z,15.10
2022-08-21T21:03:14.315Z,15.00
2022-08-21T21:06:09.718Z,14.90
2022-08-21T21:08:53.833Z,14.90
2022-08-21T21:11:43.538Z,14.80
2022-08-21T21:14:24.548Z,14.80
2022-08-21T21:17:01.513Z,14.70
2022-08-21T21:19:57.624Z,14.70
2022-08-21T21:22:38.058Z,14.70
2022-08-21T21:25:40.612Z,14.60
2022-08-21T21:28:21.081Z,14.60
2022-08-21T21:30:57.605Z,14.60
2022-08-21T21:33:29.923Z,14.60
2022-08-21T21:36:23.025Z,14.60
2022-08-21T21:39:36.040Z,14.60
2022-08-21T21:42:07.961Z,14.50
2022-08-21T21:45:13.176Z,14.50
2022-08-21T21:47:51.147Z,14.50
2022-08-21T21:50:52.287Z,15.80
2022-08-21T21:53:32.024Z,14.40
2022-08-21T21:56:21.047Z,14.30
2022-08-21T21:59:19.096Z,14.30
2022-08-21T22:02:07.222Z,14.20
2022-08-21T22:05:05.126Z,14.20
2022-08-21T22:07:49.704Z,14.10
2022-08-21T22:10:48.057Z,14.00
2022-08-21T22:13:41.430Z,14.00
2022-08-21T22:16:12.780Z,13.90
2022-08-21T22:18:59.199Z,13.90
2022-08-21T22:21:40.514Z,13.90
2022-08-21T22:24:27.812Z,13.80
2022-08-21T22:27:02.195Z,13.80
2022-08-21T22:29:53.477Z,13.80
2022-08-21T22:32:27.396Z,13.80
2022-08-21T22:35:09.563Z,13.70
2022-08-21T22:37:42.568Z,13.70
2022-08-21T22:43:09.831Z,13.70
2022-08-21T22:46:02.433Z,13.60
2022-08-21T22:48:38.153Z,13.60
2022-08-21T22:51:33.738Z,13.60
2022-08-21T22:54:03.429Z,13.50
2022-08-21T22:56:55.770Z,13.50
2022-08-21T22:59:35.040Z,13.50
2022-08-21T23:02:27.641Z,13.40
2022-08-21T23:05:00.157Z,13.40
2022-08-21T23:10:41.783Z,13.30
2022-08-21T23:13:19.099Z,13.30
2022-08-21T23:15:54.733Z,13.30
2022-08-21T23:18:44.923Z,13.20
2022-08-21T23:21:34.786Z,13.20
2022-08-21T23:24:30.778Z,13.20
2022-08-21T23:27:56.546Z,13.20
2022-08-21T23:30:38.805Z,13.30
2022-08-21T23:33:24.207Z,13.30
2022-08-21T23:36:44.131Z,13.30
2022-08-21T23:39:39.129Z,13.30
2022-08-21T23:42:27.628Z,13.30
2022-08-21T23:45:13.740Z,13.20
2022-08-21T23:48:08.814Z,13.20
2022-08-21T23:51:03.428Z,13.10
2022-08-21T23:53:51.735Z,13.10
2022-08-21T23:56:36.491Z,13.00
2022-08-21T23:59:32.507Z,13.00
